createdAt,value
2022-11-23T00:01:41.502Z,99290.97
2022-11-23T00:04:43.928Z,99292.59
2022-11-23T00:07:46.375Z,99311.75
2022-11-23T00:10:48.958Z,99316.84
2022-11-23T00:13:52.112Z,99323.69
2022-11-23T00:16:54.472Z,99320.63
2022-11-23T00:19:58.857Z,99317.91
2022-11-23T00:23:01.260Z,99320.03
2022-11-23T00:26:04.885Z,99314.56
2022-11-23T00:29:07.306Z,99310.69
2022-11-23T00:32:09.691Z,99304.13
2022-11-23T00:35:12.984Z,99299.56
2022-11-23T00:38:15.407Z,99291.34
2022-11-23T00:41:20.323Z,99297.56
2022-11-23T00:44:22.840Z,99298.72
2022-11-23T00:47:25.823Z,99292.69
2022-11-23T00:50:32.963Z,99291.94
2022-11-23T00:53:36.556Z,99283.25
2022-11-23T00:56:39.081Z,99289.34
2022-11-23T00:59:41.927Z,99288.22
2022-11-23T01:02:44.404Z,99289.38
2022-11-23T01:05:46.937Z,99285.91
2022-11-23T01:08:53.896Z,99294.34
2022-11-23T01:11:57.746Z,99299.41
2022-11-23T01:15:00.099Z,99291.69
2022-11-23T01:18:03.974Z,99285.72
2022-11-23T01:21:07.596Z,99279.03
2022-11-23T01:24:16.211Z,99273.88
2022-11-23T01:27:18.589Z,99262.53
2022-11-23T01:30:20.995Z,99256.47
2022-11-23T01:33:23.408Z,99249.94
2022-11-23T01:36:31.662Z,99244.63
2022-11-23T01:39:38.970Z,99250.28
2022-11-23T01:43:13.498Z,99242.16
2022-11-23T01:46:16.300Z,99245.84
2022-11-23T01:49:19.000Z,99260.94
2022-11-23T01:52:26.616Z,99259.34
2022-11-23T01:55:29.078Z,99257.69
2022-11-23T01:58:38.190Z,99266.00
2022-11-23T02:01:40.947Z,99254.16
2022-11-23T02:04:47.144Z,99241.81
2022-11-23T02:07:50.487Z,99236.97
2022-11-23T02:10:53.199Z,99226.66
2022-11-23T02:13:57.202Z,99219.16
2022-11-23T02:16:59.898Z,99208.66
2022-11-23T02:20:05.368Z,99196.81
2022-11-23T02:23:32.444Z,99195.41
2022-11-23T02:26:36.794Z,99193.25
2022-11-23T02:29:40.075Z,99197.97
2022-11-23T02:32:44.046Z,99195.31
2022-11-23T02:35:58.350Z,99195.03
2022-11-23T02:39:06.832Z,99194.38
2022-11-23T02:42:09.377Z,99178.03
2022-11-23T02:45:33.550Z,99184.00
2022-11-23T02:48:36.797Z,99171.09
2022-11-23T02:51:39.871Z,99174.59
2022-11-23T02:54:42.612Z,99169.47
2022-11-23T02:57:46.282Z,99172.19
2022-11-23T03:00:48.755Z,99177.34
2022-11-23T03:03:55.249Z,99188.66
2022-11-23T03:07:01.920Z,99192.97
2022-11-23T03:10:05.456Z,99206.09
2022-11-23T03:13:08.083Z,99201.94
2022-11-23T03:16:13.035Z,99200.97
2022-11-23T03:19:17.611Z,99202.94
2022-11-23T03:22:20.288Z,99195.16
2022-11-23T03:25:22.953Z,99179.75
2022-11-23T03:28:29.460Z,99178.84
2022-11-23T03:31:32.050Z,99177.00
2022-11-23T03:34:35.465Z,99187.47
2022-11-23T03:37:41.586Z,99195.00
2022-11-23T03:40:48.335Z,99190.53
2022-11-23T03:43:59.315Z,99191.06
2022-11-23T03:47:01.795Z,99193.16
2022-11-23T03:50:05.024Z,99197.81
2022-11-23T03:53:08.414Z,99202.59
2022-11-23T03:56:11.229Z,99201.75
2022-11-23T03:59:18.255Z,99202.47
2022-11-23T04:02:20.675Z,99205.53
2022-11-23T04:05:33.140Z,99209.19
2022-11-23T04:08:58.871Z,99202.84
2022-11-23T04:12:22.433Z,99202.00
2022-11-23T04:15:25.311Z,99202.94
2022-11-23T04:18:27.898Z,99200.13
2022-11-23T04:21:30.698Z,99199.78
2022-11-23T04:24:33.919Z,99204.75
2022-11-23T04:27:39.870Z,99194.91
2022-11-23T04:30:43.991Z,99201.69
2022-11-23T04:34:30.705Z,99200.22
2022-11-23T04:37:33.222Z,99207.09
2022-11-23T04:40:36.162Z,99200.28
2022-11-23T04:43:39.965Z,99204.34
2022-11-23T04:46:43.026Z,99208.00
2022-11-23T04:49:48.664Z,99209.22
2022-11-23T04:52:51.442Z,99206.34
2022-11-23T04:55:58.563Z,99205.19
2022-11-23T04:59:01.389Z,99213.47
2022-11-23T05:02:04.049Z,99211.16
2022-11-23T05:05:32.482Z,99218.88
2022-11-23T05:08:37.155Z,99209.41
2022-11-23T05:11:55.066Z,99220.84
2022-11-23T05:14:57.529Z,99225.06
2022-11-23T05:18:10.583Z,99226.56
2022-11-23T05:21:15.202Z,99230.34
2022-11-23T05:24:18.112Z,99231.81
2022-11-23T05:27:33.569Z,99238.19
2022-11-23T05:30:36.074Z,99229.66
2022-11-23T05:33:39.664Z,99231.03
2022-11-23T05:36:44.645Z,99229.63
2022-11-23T05:39:47.404Z,99225.63
2022-11-23T05:42:55.016Z,99221.56
2022-11-23T05:46:02.471Z,99228.38
2022-11-23T05:49:09.871Z,99231.06
2022-11-23T05:52:14.271Z,99232.84
2022-11-23T05:55:17.895Z,99234.78
2022-11-23T05:58:20.445Z,99229.00
2022-11-23T06:01:23.942Z,99239.94
2022-11-23T06:04:28.725Z,99236.91
2022-11-23T06:07:37.195Z,99234.91
2022-11-23T06:10:48.657Z,99241.28
2022-11-23T06:13:51.082Z,99236.94
2022-11-23T06:17:12.192Z,99235.94
2022-11-23T06:20:27.865Z,99246.19
2022-11-23T06:23:35.225Z,99239.47
2022-11-23T06:26:37.919Z,99245.50
2022-11-23T06:29:42.594Z,99245.09
2022-11-23T06:32:45.173Z,99246.81
2022-11-23T06:35:56.154Z,99239.72
2022-11-23T06:39:02.746Z,99239.81
2022-11-23T06:42:37.157Z,99238.66
2022-11-23T06:45:32.455Z,99243.09
2022-11-23T06:48:39.341Z,99237.84
2022-11-23T06:51:43.129Z,99234.69
2022-11-23T06:54:45.771Z,99236.41
2022-11-23T06:57:48.269Z,99240.84
2022-11-23T07:00:50.794Z,99252.63
2022-11-23T07:03:53.868Z,99248.28
2022-11-23T07:07:10.442Z,99241.91
2022-11-23T07:10:35.567Z,99240.78
2022-11-23T07:13:48.694Z,99226.13
2022-11-23T07:16:51.868Z,99221.91
2022-11-23T07:19:54.899Z,99217.22
2022-11-23T07:23:04.640Z,99228.75
2022-11-23T07:26:09.162Z,99223.31
2022-11-23T07:29:12.202Z,99227.06
2022-11-23T07:32:15.606Z,99222.25
2022-11-23T07:35:19.675Z,99223.03
2022-11-23T07:38:22.336Z,99230.81
2022-11-23T07:41:27.315Z,99228.81
2022-11-23T07:44:49.981Z,99228.75
2022-11-23T07:48:06.980Z,99225.78
2022-11-23T07:51:09.434Z,99229.78
2022-11-23T07:54:12.033Z,99225.81
2022-11-23T07:57:14.916Z,99226.41
2022-11-23T08:00:52.297Z,99223.25
2022-11-23T08:04:05.399Z,99214.47
2022-11-23T08:07:08.012Z,99208.41
2022-11-23T08:10:12.227Z,99206.50
2022-11-23T08:13:14.693Z,99205.50
2022-11-23T08:16:17.118Z,99200.09
2022-11-23T08:19:19.778Z,99213.28
2022-11-23T08:22:22.735Z,99210.78
2022-11-23T08:25:27.069Z,99202.75
2022-11-23T08:28:29.645Z,99208.78
2022-11-23T08:31:32.873Z,99207.59
2022-11-23T08:34:35.468Z,99212.84
2022-11-23T08:37:40.907Z,99216.31
2022-11-23T08:40:44.585Z,99232.41
2022-11-23T08:43:51.209Z,99241.19
2022-11-23T08:46:53.758Z,99225.34
2022-11-23T08:49:57.653Z,99236.81
2022-11-23T08:53:00.972Z,99227.84
2022-11-23T08:56:05.200Z,99225.09
2022-11-23T08:59:08.680Z,99227.03
2022-11-23T09:02:14.737Z,99225.31
2022-11-23T09:05:17.329Z,99217.63
2022-11-23T09:08:19.818Z,99218.03
2022-11-23T09:11:22.316Z,99218.28
2022-11-23T09:14:25.170Z,99218.94
2022-11-23T09:17:27.705Z,99220.78
2022-11-23T09:20:30.793Z,99219.69
2022-11-23T09:23:33.629Z,99208.22
2022-11-23T09:26:37.755Z,99217.44
2022-11-23T09:29:40.373Z,99218.25
2022-11-23T09:32:43.060Z,99221.09
2022-11-23T09:35:45.463Z,99213.47
2022-11-23T09:38:57.094Z,99213.53
2022-11-23T09:42:06.400Z,99200.53
2022-11-23T09:45:25.503Z,99202.88
2022-11-23T09:48:41.459Z,99213.91
2022-11-23T09:51:44.857Z,99205.28
2022-11-23T09:54:50.055Z,99199.69
2022-11-23T09:58:01.313Z,99202.53
2022-11-23T10:01:09.730Z,99204.94
2022-11-23T10:04:19.325Z,99184.31
2022-11-23T10:07:22.868Z,99188.31
2022-11-23T10:10:37.591Z,99186.63
2022-11-23T10:13:50.503Z,99188.56
2022-11-23T10:17:17.267Z,99185.44
2022-11-23T10:20:25.454Z,99174.59
2022-11-23T10:23:53.641Z,99175.50
2022-11-23T10:26:55.991Z,99174.97
2022-11-23T10:29:59.965Z,99174.69
2022-11-23T10:33:31.438Z,99173.22
2022-11-23T10:36:38.462Z,99174.31
2022-11-23T10:39:41.303Z,99168.97
2022-11-23T10:42:50.057Z,99176.72
2022-11-23T10:46:24.306Z,99177.63
2022-11-23T10:49:33.255Z,99177.44
2022-11-23T10:52:35.828Z,99172.00
2022-11-23T10:55:58.168Z,99183.88
2022-11-23T10:59:00.815Z,99181.69
2022-11-23T11:02:21.685Z,99191.13
2022-11-23T11:08:56.587Z,99178.38
2022-11-23T11:11:59.069Z,99184.59
2022-11-23T11:15:12.015Z,99182.84
2022-11-23T11:18:18.909Z,99189.34
2022-11-23T11:21:24.157Z,99183.44
2022-11-23T11:24:44.381Z,99193.56
2022-11-23T11:27:51.987Z,99179.53
2022-11-23T11:31:06.302Z,99185.75
2022-11-23T11:34:19.961Z,99179.00
2022-11-23T11:37:47.170Z,99181.47
2022-11-23T11:40:52.354Z,99175.91
2022-11-23T11:44:07.678Z,99179.09
2022-11-23T11:47:25.050Z,99167.69
2022-11-23T11:50:34.141Z,99173.75
2022-11-23T11:53:46.957Z,99173.56
2022-11-23T11:56:52.670Z,99164.81
2022-11-23T11:59:57.973Z,99167.47
2022-11-23T12:03:52.259Z,99160.31
2022-11-23T12:07:05.189Z,99160.41
2022-11-23T12:10:21.289Z,99171.44
2022-11-23T12:13:30.376Z,99166.94
2022-11-23T12:17:24.953Z,99172.22
2022-11-23T12:20:29.206Z,99170.69
2022-11-23T12:23:56.147Z,99163.16
2022-11-23T12:27:01.235Z,99177.38
2022-11-23T12:30:15.789Z,99176.34
2022-11-23T12:33:35.629Z,99175.13
2022-11-23T12:36:45.324Z,99170.75
2022-11-23T12:40:16.429Z,99160.38
2022-11-23T12:43:24.459Z,99158.16
2022-11-23T12:46:55.707Z,99168.97
2022-11-23T12:50:10.717Z,99163.84
2022-11-23T12:53:36.982Z,99166.03
2022-11-23T12:57:07.358Z,99167.97
2022-11-23T13:00:20.305Z,99170.31
2022-11-23T13:03:32.317Z,99167.16
2022-11-23T13:07:26.240Z,99163.47
2022-11-23T13:10:43.458Z,99163.31
2022-11-23T13:13:54.138Z,99160.97
2022-11-23T13:17:03.911Z,99163.44
2022-11-23T13:20:30.582Z,99150.09
2022-11-23T13:23:40.048Z,99146.25
2022-11-23T13:26:42.562Z,99154.09
2022-11-23T13:30:08.795Z,99153.78
2022-11-23T13:33:21.088Z,99143.38
2022-11-23T13:37:04.386Z,99148.22
2022-11-23T13:40:00.596Z,99144.72
2022-11-23T13:43:21.323Z,99141.34
2022-11-23T13:46:29.144Z,99137.75
2022-11-23T13:49:42.839Z,99138.25
2022-11-23T13:52:50.437Z,99144.00
2022-11-23T13:55:56.716Z,99154.69
2022-11-23T13:59:24.528Z,99151.16
2022-11-23T14:02:29.704Z,99159.06
2022-11-23T14:05:59.474Z,99151.72
2022-11-23T14:09:33.027Z,99151.00
2022-11-23T14:12:51.064Z,99159.78
2022-11-23T14:16:02.366Z,99162.06
2022-11-23T14:19:26.687Z,99162.00
2022-11-23T14:23:18.241Z,99157.06
2022-11-23T14:26:20.664Z,99161.19
2022-11-23T14:29:41.856Z,99156.19
2022-11-23T14:33:02.067Z,99165.41
2022-11-23T14:36:18.361Z,99157.66
2022-11-23T14:39:45.436Z,99161.16
2022-11-23T14:42:54.219Z,99162.72
2022-11-23T14:46:02.334Z,99164.34
2022-11-23T14:49:07.572Z,99175.03
2022-11-23T14:52:19.191Z,99169.75
2022-11-23T14:55:29.635Z,99177.19
2022-11-23T14:58:33.595Z,99188.59
2022-11-23T15:01:37.563Z,99181.91
2022-11-23T15:05:12.546Z,99191.31
2022-11-23T15:08:20.575Z,99192.38
2022-11-23T15:11:28.055Z,99193.06
2022-11-23T15:14:30.993Z,99192.03
2022-11-23T15:17:34.029Z,99197.31
2022-11-23T15:20:44.300Z,99186.56
2022-11-23T15:23:50.043Z,99197.91
2022-11-23T15:26:53.511Z,99182.16
2022-11-23T15:29:58.675Z,99198.97
2022-11-23T15:33:05.401Z,99192.09
2022-11-23T15:36:08.152Z,99190.34
2022-11-23T15:39:17.481Z,99186.88
2022-11-23T15:42:24.588Z,99182.16
2022-11-23T15:46:00.757Z,99181.31
2022-11-23T15:49:06.430Z,99187.88
2022-11-23T15:52:15.059Z,99178.16
2022-11-23T15:55:19.489Z,99167.88
2022-11-23T15:58:21.989Z,99173.06
2022-11-23T16:01:25.688Z,99166.63
2022-11-23T16:04:31.541Z,99180.44
2022-11-23T16:07:34.269Z,99176.25
2022-11-23T16:10:54.147Z,99176.13
2022-11-23T16:14:14.444Z,99184.19
2022-11-23T16:17:20.560Z,99172.97
2022-11-23T16:20:25.306Z,99185.69
2022-11-23T16:23:43.318Z,99199.53
2022-11-23T16:26:45.833Z,99200.53
2022-11-23T16:29:50.724Z,99204.75
2022-11-23T16:32:53.362Z,99198.31
2022-11-23T16:35:56.175Z,99201.34
2022-11-23T16:39:05.174Z,99202.13
2022-11-23T16:42:12.768Z,99204.69
2022-11-23T16:45:15.176Z,99204.75
2022-11-23T16:48:23.980Z,99202.47
2022-11-23T16:51:26.901Z,99193.94
2022-11-23T16:54:29.408Z,99199.97
2022-11-23T16:57:35.479Z,99200.06
2022-11-23T17:00:37.984Z,99193.75
2022-11-23T17:03:41.387Z,99194.56
2022-11-23T17:06:44.351Z,99191.63
2022-11-23T17:09:47.453Z,99192.69
2022-11-23T17:12:53.345Z,99181.88
2022-11-23T17:15:56.213Z,99189.00
2022-11-23T17:18:58.905Z,99187.50
2022-11-23T17:22:01.640Z,99191.00
2022-11-23T17:25:08.906Z,99182.06
2022-11-23T17:28:22.474Z,99191.44
2022-11-23T17:31:25.590Z,99194.72
2022-11-23T17:34:28.342Z,99198.28
2022-11-23T17:37:31.242Z,99199.88
2022-11-23T17:40:33.860Z,99201.91
2022-11-23T17:43:36.511Z,99194.88
2022-11-23T17:46:39.498Z,99203.31
2022-11-23T17:49:42.253Z,99202.50
2022-11-23T17:52:45.759Z,99199.78
2022-11-23T17:55:48.668Z,99201.66
2022-11-23T17:58:54.898Z,99204.31
2022-11-23T18:01:57.943Z,99203.41
2022-11-23T18:05:00.685Z,99202.00
2022-11-23T18:08:03.462Z,99203.75
2022-11-23T18:11:05.992Z,99202.34
2022-11-23T18:14:08.908Z,99203.72
2022-11-23T18:17:11.683Z,99212.00
2022-11-23T18:20:15.622Z,99211.16
2022-11-23T18:23:18.447Z,99212.84
2022-11-23T18:26:27.154Z,99218.84
2022-11-23T18:29:31.049Z,99220.00
2022-11-23T18:32:34.379Z,99224.50
2022-11-23T18:35:37.087Z,99231.81
2022-11-23T18:38:45.019Z,99237.84
2022-11-23T18:41:47.769Z,99234.94
2022-11-23T18:44:50.386Z,99247.06
2022-11-23T18:47:52.721Z,99240.31
2022-11-23T18:50:55.170Z,99254.19
2022-11-23T18:53:58.155Z,99259.00
2022-11-23T18:57:01.825Z,99257.13
2022-11-23T19:00:06.046Z,99256.97
2022-11-23T19:03:09.844Z,99254.88
2022-11-23T19:06:14.660Z,99251.47
2022-11-23T19:09:17.300Z,99258.34
2022-11-23T19:12:19.793Z,99259.78
2022-11-23T19:15:22.632Z,99264.38
2022-11-23T19:18:25.451Z,99263.78
2022-11-23T19:21:31.027Z,99270.56
2022-11-23T19:24:33.699Z,99268.84
2022-11-23T19:27:36.604Z,99267.31
2022-11-23T19:30:39.297Z,99269.47
2022-11-23T19:33:43.749Z,99264.63
2022-11-23T19:36:46.605Z,99274.09
2022-11-23T19:39:52.388Z,99272.63
2022-11-23T19:42:55.031Z,99280.22
2022-11-23T19:45:59.825Z,99282.56
2022-11-23T19:49:04.869Z,99286.38
2022-11-23T19:52:08.841Z,99284.13
2022-11-23T19:55:11.581Z,99294.19
2022-11-23T19:58:15.257Z,99292.66
2022-11-23T20:01:20.388Z,99296.06
2022-11-23T20:04:23.164Z,99301.41
2022-11-23T20:07:25.981Z,99298.22
2022-11-23T20:10:28.843Z,99306.91
2022-11-23T20:13:31.490Z,99302.97
2022-11-23T20:16:34.370Z,99302.38
2022-11-23T20:19:37.250Z,99300.09
2022-11-23T20:22:39.899Z,99308.44
2022-11-23T20:25:42.873Z,99306.00
2022-11-23T20:28:50.073Z,99315.28
2022-11-23T20:31:52.833Z,99318.00
2022-11-23T20:34:56.276Z,99317.84
2022-11-23T20:37:58.923Z,99321.31
2022-11-23T20:41:11.345Z,99327.59
2022-11-23T20:44:14.482Z,99326.56
2022-11-23T20:47:17.575Z,99321.97
2022-11-23T20:50:27.124Z,99330.13
2022-11-23T20:53:30.858Z,99327.50
2022-11-23T20:56:33.516Z,99335.78
2022-11-23T20:59:36.082Z,99336.94
2022-11-23T21:02:38.720Z,99334.84
2022-11-23T21:05:41.208Z,99338.72
2022-11-23T21:08:45.820Z,99341.56
2022-11-23T21:12:06.808Z,99341.97
2022-11-23T21:15:09.737Z,99348.56
2022-11-23T21:18:12.552Z,99340.47
2022-11-23T21:21:14.955Z,99348.81
2022-11-23T21:24:18.545Z,99347.91
2022-11-23T21:27:24.894Z,99340.53
2022-11-23T21:30:27.335Z,99354.09
2022-11-23T21:33:29.776Z,99354.63
2022-11-23T21:36:37.476Z,99355.13
2022-11-23T21:39:41.493Z,99356.91
2022-11-23T21:42:44.847Z,99359.56
2022-11-23T21:45:47.336Z,99361.03
2022-11-23T21:48:55.120Z,99359.41
2022-11-23T21:51:57.536Z,99360.78
2022-11-23T21:55:00.361Z,99368.69
2022-11-23T21:58:02.763Z,99367.78
2022-11-23T22:01:07.143Z,99372.78
2022-11-23T22:04:12.646Z,99383.88
2022-11-23T22:07:15.223Z,99388.06
2022-11-23T22:10:18.151Z,99390.03
2022-11-23T22:13:22.111Z,99388.66
2022-11-23T22:16:31.459Z,99387.53
2022-11-23T22:19:33.947Z,99388.06
2022-11-23T22:22:36.310Z,99392.59
2022-11-23T22:25:38.706Z,99400.59
2022-11-23T22:28:47.038Z,99392.66
2022-11-23T22:31:49.727Z,99393.50
2022-11-23T22:34:52.286Z,99391.75
2022-11-23T22:37:55.474Z,99390.72
2022-11-23T22:40:59.154Z,99392.94
2022-11-23T22:44:01.674Z,99381.84
2022-11-23T22:47:04.079Z,99385.94
2022-11-23T22:50:07.279Z,99385.94
2022-11-23T22:53:10.531Z,99384.31
2022-11-23T22:56:17.596Z,99383.38
2022-11-23T22:59:19.952Z,99390.38
2022-11-23T23:02:22.453Z,99388.84
2022-11-23T23:05:25.288Z,99384.81
2022-11-23T23:08:28.976Z,99388.66
2022-11-23T23:11:32.846Z,99390.25
2022-11-23T23:14:35.597Z,99387.91
2022-11-23T23:17:38.458Z,99388.88
2022-11-23T23:20:41.012Z,99394.63
2022-11-23T23:23:46.091Z,99392.50
2022-11-23T23:26:48.754Z,99387.50
2022-11-23T23:29:52.037Z,99387.50
2022-11-23T23:32:57.081Z,99387.28
2022-11-23T23:36:10.786Z,99386.25
2022-11-23T23:39:13.538Z,99383.91
2022-11-23T23:42:15.993Z,99389.03
2022-11-23T23:45:18.322Z,99388.50
2022-11-23T23:48:20.682Z,99384.00
2022-11-23T23:51:24.011Z,99381.84
2022-11-23T23:54:26.445Z,99380.81
2022-11-23T23:57:29.899Z,99375.19
